Time;durP1;ratioP1;P1;durP2;ratioP2;P2;SDS_P1;SDS_P2;PMS_P1;PMS_P2;Temp;Humidity;BMP_temperature;BMP_pressure;BME280_temperature;BME280_humidity;BME280_pressure;Samples;Min_cycle;Max_cycle;Signal;HPM_P1;HPM_P2
2024/02/05 00:01:08;;;;;;;21.65;4.20;;;;;;;9.74;100.00;101744.56;5068317;28;20066;-58
2024/02/05 00:03:36;;;;;;;16.98;3.92;;;;;;;9.76;100.00;101749.75;5072187;28;20856;-57
2024/02/05 00:06:05;;;;;;;19.30;4.13;;;;;;;9.77;100.00;101746.22;5069744;28;20492;-57
2024/02/05 00:08:34;;;;;;;23.10;5.30;;;;;;;9.72;100.00;101746.44;5068734;28;20385;-58
2024/02/05 00:11:03;;;;;;;17.27;4.43;;;;;;;9.73;100.00;101755.16;5069923;28;20135;-46
2024/02/05 00:13:31;;;;;;;23.92;4.57;;;;;;;9.71;100.00;101749.97;5069654;28;20535;-50
2024/02/05 00:16:00;;;;;;;24.30;5.50;;;;;;;9.72;100.00;101751.69;5068581;28;20048;-56
2024/02/05 00:18:30;;;;;;;23.13;4.57;;;;;;;9.72;100.00;101758.69;5070080;28;20684;-47
2024/02/05 00:20:58;;;;;;;23.80;5.28;;;;;;;9.68;100.00;101762.41;5070825;28;20102;-46
2024/02/05 00:23:26;;;;;;;19.77;4.25;;;;;;;9.71;100.00;101759.66;5073038;28;20045;-47
2024/02/05 00:25:54;;;;;;;22.38;5.22;;;;;;;9.68;100.00;101752.75;5072907;28;20067;-46
2024/02/05 00:28:22;;;;;;;20.58;5.05;;;;;;;9.67;100.00;101751.06;5072734;28;20045;-53
2024/02/05 00:30:51;;;;;;;20.85;4.72;;;;;;;9.69;100.00;101756.22;5071143;28;20080;-57
2024/02/05 00:33:19;;;;;;;21.60;5.40;;;;;;;9.68;100.00;101757.16;5069972;28;20053;-46
2024/02/05 00:35:48;;;;;;;22.65;4.60;;;;;;;9.65;100.00;101758.13;5069452;28;20055;-46
2024/02/05 00:38:17;;;;;;;23.98;5.18;;;;;;;9.66;100.00;101753.75;5069949;28;20063;-48
2024/02/05 00:40:47;;;;;;;23.88;5.50;;;;;;;9.64;100.00;101757.28;5069794;28;20048;-57
2024/02/05 00:43:15;;;;;;;22.30;5.40;;;;;;;9.62;100.00;101761.75;5069689;28;20551;-57
2024/02/05 00:45:43;;;;;;;22.42;5.50;;;;;;;9.60;100.00;101755.75;5068675;28;20048;-54
2024/02/05 00:48:11;;;;;;;21.20;5.10;;;;;;;9.59;100.00;101761.91;5071240;28;20048;-51
2024/02/05 00:50:41;;;;;;;22.45;5.55;;;;;;;9.60;100.00;101758.34;5072526;28;20539;-51
2024/02/05 00:53:13;;;;;;;24.85;4.65;;;;;;;9.61;100.00;101754.81;5072159;28;20098;-52
2024/02/05 00:55:42;;;;;;;22.67;5.05;;;;;;;9.59;100.00;101759.28;5069130;28;20052;-46
2024/02/05 00:58:10;;;;;;;26.45;5.50;;;;;;;9.58;100.00;101757.56;5069869;28;20048;-49
2024/02/05 01:00:38;;;;;;;23.60;5.18;;;;;;;9.57;100.00;101758.50;5072654;28;20499;-48
2024/02/05 01:03:07;;;;;;;20.20;5.85;;;;;;;9.56;100.00;101758.59;5072331;28;20558;-47
2024/02/05 01:05:36;;;;;;;23.60;4.82;;;;;;;9.54;100.00;101758.63;5072443;28;20053;-46
2024/02/05 01:08:05;;;;;;;22.85;5.07;;;;;;;9.54;100.00;101758.63;5071994;28;20790;-48
2024/02/05 01:10:34;;;;;;;28.23;4.65;;;;;;;9.58;100.00;101749.69;5071880;28;20531;-47
2024/02/05 01:13:04;;;;;;;21.25;5.05;;;;;;;9.54;100.00;101750.75;5070757;28;20526;-50
2024/02/05 01:15:33;;;;;;;25.58;5.13;;;;;;;9.50;100.00;101757.06;5068017;28;20052;-48
2024/02/05 01:18:02;;;;;;;23.20;4.38;;;;;;;9.49;100.00;101758.03;5067387;28;20071;-48
2024/02/05 01:20:31;;;;;;;20.02;6.03;;;;;;;9.52;100.00;101759.66;5069335;28;20560;-47
2024/02/05 01:22:59;;;;;;;27.90;6.35;;;;;;;9.50;100.00;101750.97;5072050;28;20083;-49
2024/02/05 01:25:27;;;;;;;22.38;6.60;;;;;;;9.48;100.00;101757.16;5072302;28;20542;-47
2024/02/05 01:27:57;;;;;;;25.20;5.60;;;;;;;9.47;100.00;101750.22;5072194;28;20483;-47
2024/02/05 01:30:25;;;;;;;22.05;5.53;;;;;;;9.45;100.00;101741.53;5068754;28;20044;-48
2024/02/05 01:32:53;;;;;;;23.25;5.20;;;;;;;9.47;100.00;101751.97;5068545;28;20127;-50
2024/02/05 01:35:22;;;;;;;22.38;5.43;;;;;;;9.45;100.00;101762.53;5072009;28;20128;-45
2024/02/05 01:37:50;;;;;;;21.13;5.03;;;;;;;9.44;100.00;101757.38;5072129;28;20056;-47
2024/02/05 01:40:18;;;;;;;29.40;5.88;;;;;;;9.40;100.00;101764.53;5072333;28;20046;-47
2024/02/05 01:42:46;;;;;;;26.15;5.72;;;;;;;9.39;100.00;101768.06;5070813;28;20140;-47
2024/02/05 01:45:16;;;;;;;19.20;4.47;;;;;;;9.40;100.00;101753.19;5071939;28;20072;-46
2024/02/05 01:47:44;;;;;;;22.85;5.90;;;;;;;9.37;100.00;101753.31;5067852;28;20049;-49
2024/02/05 01:50:14;;;;;;;28.08;5.82;;;;;;;9.38;100.00;101755.88;5067447;28;20504;-48
2024/02/05 01:52:46;;;;;;;19.60;5.13;;;;;;;9.36;100.00;101749.00;5068926;28;20049;-48
2024/02/05 01:55:16;;;;;;;23.70;5.80;;;;;;;9.34;100.00;101753.44;5069087;28;20135;-47
2024/02/05 01:57:45;;;;;;;24.42;4.78;;;;;;;9.32;100.00;101742.19;5069438;28;20106;-47
2024/02/05 02:00:16;;;;;;;26.73;5.30;;;;;;;9.26;100.00;101738.06;5071735;28;20119;-47
2024/02/05 02:02:46;;;;;;;27.90;5.15;;;;;;;9.21;100.00;101733.00;5071770;28;20136;-47
2024/02/05 02:05:18;;;;;;;24.40;5.35;;;;;;;9.25;100.00;101741.59;5070583;28;20095;-49
2024/02/05 02:07:47;;;;;;;28.60;5.63;;;;;;;9.22;100.00;101739.97;5068986;28;20045;-46
2024/02/05 02:10:15;;;;;;;32.67;5.45;;;;;;;9.23;100.00;101741.69;5072417;28;20059;-48
2024/02/05 02:12:47;;;;;;;26.67;4.78;;;;;;;9.22;100.00;101754.88;5075492;28;20051;-46
2024/02/05 02:15:17;;;;;;;28.08;6.07;;;;;;;9.18;100.00;101733.16;5075385;28;20040;-45
2024/02/05 02:17:46;;;;;;;22.88;5.15;;;;;;;9.12;100.00;101743.91;5075232;28;20037;-47
2024/02/05 02:20:15;;;;;;;24.05;5.00;;;;;;;9.07;100.00;101740.66;5073213;28;20051;-46
2024/02/05 02:22:53;;;;;;;26.95;5.05;;;;;;;9.07;100.00;101751.16;5072020;28;20052;-46
2024/02/05 02:25:23;;;;;;;24.88;5.50;;;;;;;9.05;100.00;101747.72;5075064;28;20134;-48
2024/02/05 02:27:53;;;;;;;27.20;6.15;;;;;;;9.03;100.00;101752.22;5074915;28;20049;-47
2024/02/05 02:30:22;;;;;;;20.75;4.72;;;;;;;8.96;100.00;101747.22;5075085;28;20495;-51
2024/02/05 02:33:03;;;;;;;32.83;6.13;;;;;;;8.89;100.00;101748.41;5073765;28;20450;-49
2024/02/05 02:35:38;;;;;;;28.20;5.70;;;;;;;8.88;100.00;101753.75;5074894;28;20060;-48
2024/02/05 02:38:11;;;;;;;22.67;5.43;;;;;;;8.85;100.00;101748.59;5074189;28;20507;-51
2024/02/05 02:40:41;;;;;;;25.70;5.07;;;;;;;8.83;100.00;101738.19;5071612;28;20041;-56
2024/02/05 02:43:11;;;;;;;22.42;5.85;;;;;;;8.79;100.00;101739.22;5073387;28;20059;-57
2024/02/05 02:45:39;;;;;;;26.42;5.40;;;;;;;8.79;100.00;101745.34;5070330;28;20052;-57
2024/02/05 02:48:08;;;;;;;25.55;5.70;;;;;;;8.76;100.00;101753.31;5071473;28;20041;-56
2024/02/05 02:50:36;;;;;;;29.05;5.53;;;;;;;8.71;100.00;101731.72;5072200;28;20050;-56
2024/02/05 02:53:04;;;;;;;28.27;5.43;;;;;;;8.72;100.00;101745.66;5074737;28;20098;-56
2024/02/05 02:55:33;;;;;;;28.63;5.93;;;;;;;8.71;100.00;101729.09;5072831;28;20098;-57
2024/02/05 02:58:02;;;;;;;30.10;5.95;;;;;;;8.72;100.00;101735.19;5071660;28;20067;-57
2024/02/05 03:00:30;;;;;;;26.35;5.65;;;;;;;8.71;100.00;101734.34;5073762;28;20373;-56
2024/02/05 03:02:59;;;;;;;24.52;5.68;;;;;;;8.68;100.00;101729.22;5074535;28;20052;-57
2024/02/05 03:05:27;;;;;;;27.25;6.47;;;;;;;8.68;100.00;101747.56;5074566;28;20055;-57
2024/02/05 03:07:55;;;;;;;25.80;5.95;;;;;;;8.67;100.00;101745.00;5072411;28;20055;-56
2024/02/05 03:10:26;;;;;;;25.05;5.75;;;;;;;8.68;100.00;101744.09;5071476;28;20070;-56
2024/02/05 03:12:54;;;;;;;25.50;5.53;;;;;;;8.71;100.00;101746.59;5069501;28;20406;-57
2024/02/05 03:15:23;;;;;;;23.75;5.63;;;;;;;8.71;100.00;101736.09;5071017;28;20427;-57
2024/02/05 03:17:51;;;;;;;33.40;6.78;;;;;;;8.74;100.00;101746.44;5074162;28;20068;-57
2024/02/05 03:20:34;;;;;;;33.67;6.65;;;;;;;8.71;100.00;101754.44;5074305;28;20056;-57
2024/02/05 03:23:04;;;;;;;24.20;5.65;;;;;;;8.72;100.00;101751.75;5073636;28;20087;-57
2024/02/05 03:25:38;;;;;;;28.33;6.05;;;;;;;8.75;100.00;101756.03;5073635;28;20122;-57
2024/02/05 03:28:07;;;;;;;25.90;6.35;;;;;;;8.72;100.00;101762.25;5069977;28;20037;-57
2024/02/05 03:30:39;;;;;;;27.80;6.05;;;;;;;8.74;100.00;101754.31;5069154;28;20052;-58
2024/02/05 03:33:08;;;;;;;26.02;6.50;;;;;;;8.73;100.00;101763.13;5071708;28;20049;-57
2024/02/05 03:35:37;;;;;;;24.98;6.15;;;;;;;8.73;100.00;101758.72;5073789;28;20044;-57
2024/02/05 03:38:05;;;;;;;21.23;5.90;;;;;;;8.73;100.00;101758.72;5073582;28;20102;-57
2024/02/05 03:40:33;;;;;;;28.23;5.38;;;;;;;8.75;100.00;101766.50;5073638;28;20534;-57
2024/02/05 03:43:01;;;;;;;26.58;6.20;;;;;;;8.74;100.00;101760.44;5073643;28;20036;-57
2024/02/05 03:45:30;;;;;;;21.02;5.80;;;;;;;8.76;100.00;101753.31;5073623;28;20131;-57
2024/02/05 03:48:00;;;;;;;22.33;6.00;;;;;;;8.80;100.00;101761.94;5069658;28;20051;-56
2024/02/05 03:50:30;;;;;;;28.45;7.00;;;;;;;8.78;100.00;101758.50;5070623;28;20047;-57
2024/02/05 03:52:58;;;;;;;31.48;6.20;;;;;;;8.75;100.00;101756.03;5070120;28;20426;-58
2024/02/05 03:55:27;;;;;;;23.92;6.68;;;;;;;8.74;100.00;101762.19;5070009;28;20045;-57
2024/02/05 03:57:59;;;;;;;31.42;7.03;;;;;;;8.73;100.00;101757.88;5069283;28;20045;-57
2024/02/05 04:00:27;;;;;;;;;;;;;;;8.73;100.00;101758.72;5072784;28;20064;-57
2024/02/05 04:02:55;;;;;;;26.15;6.18;;;;;;;8.74;100.00;101749.06;5073445;28;19927;-57
2024/02/05 04:05:28;;;;;;;22.13;5.93;;;;;;;8.74;100.00;101749.06;5073483;28;20540;-57
2024/02/05 04:07:57;;;;;;;;;;;;;;;8.76;100.00;101757.72;5073735;28;20046;-56
2024/02/05 04:10:26;;;;;;;25.25;6.40;;;;;;;8.74;100.00;101755.19;5071876;28;20394;-56
2024/02/05 04:12:55;;;;;;;27.90;6.80;;;;;;;8.74;100.00;101764.81;5071032;28;20056;-56
2024/02/05 04:15:23;;;;;;;28.10;7.40;;;;;;;8.72;100.00;101748.28;5068832;28;20491;-56
2024/02/05 04:17:51;;;;;;;27.17;7.15;;;;;;;8.72;100.00;101756.16;5072613;28;20415;-56
2024/02/05 04:20:20;;;;;;;27.83;6.32;;;;;;;8.72;100.00;101745.66;5073023;28;20040;-57
2024/02/05 04:22:50;;;;;;;26.10;6.28;;;;;;;8.72;100.00;101749.13;5073132;28;20036;-45
2024/02/05 04:25:18;;;;;;;23.17;6.95;;;;;;;8.69;100.00;101745.81;5072896;28;20445;-57
2024/02/05 04:27:46;;;;;;;27.13;7.07;;;;;;;8.70;100.00;101742.25;5073280;28;20123;-56
2024/02/05 04:30:16;;;;;;;25.20;6.32;;;;;;;8.70;100.00;101748.38;5072612;28;20084;-56
2024/02/05 04:32:44;;;;;;;28.02;6.78;;;;;;;8.69;100.00;101746.66;5071772;28;20399;-56
2024/02/05 04:35:12;;;;;;;30.90;7.05;;;;;;;8.68;100.00;101755.44;5068811;28;20040;-57
2024/02/05 04:37:42;;;;;;;26.23;7.03;;;;;;;8.69;100.00;101756.31;5067701;28;20055;-58
2024/02/05 04:40:15;;;;;;;30.58;7.07;;;;;;;8.68;100.00;101751.97;5068781;28;20508;-56
2024/02/05 04:42:43;;;;;;;26.55;6.47;;;;;;;8.68;100.00;101751.97;5068600;28;20396;-57
2024/02/05 04:45:12;;;;;;;23.02;6.35;;;;;;;8.66;100.00;101756.41;5068806;28;20484;-57
2024/02/05 04:47:41;;;;;;;27.58;6.50;;;;;;;8.66;100.00;101751.16;5069153;28;20048;-57
2024/02/05 04:50:09;;;;;;;30.10;7.50;;;;;;;8.63;100.00;101758.25;5070587;28;20115;-56
2024/02/05 04:52:38;;;;;;;27.77;6.35;;;;;;;8.66;100.00;101745.91;5070520;28;20051;-56
2024/02/05 04:55:06;;;;;;;27.35;6.95;;;;;;;8.64;100.00;101759.09;5069156;28;20395;-57
2024/02/05 04:57:36;;;;;;;32.53;6.07;;;;;;;8.63;100.00;101755.63;5069017;28;20045;-56
2024/02/05 05:00:06;;;;;;;27.33;6.32;;;;;;;8.63;100.00;101753.00;5068689;28;20127;-57
2024/02/05 05:02:34;;;;;;;25.80;6.95;;;;;;;8.62;100.00;101751.31;5068545;28;20055;-57
2024/02/05 05:05:02;;;;;;;26.15;5.53;;;;;;;8.62;100.00;101751.31;5070151;28;20053;-57
2024/02/05 05:07:30;;;;;;;26.40;6.25;;;;;;;8.60;100.00;101747.91;5068606;28;20048;-56
2024/02/05 05:09:59;;;;;;;30.13;6.18;;;;;;;8.64;100.00;101735.50;5069181;28;20052;-57
2024/02/05 05:12:28;;;;;;;32.08;6.43;;;;;;;8.66;100.00;101743.28;5069139;28;20102;-57
2024/02/05 05:14:57;;;;;;;25.95;6.13;;;;;;;8.63;100.00;101736.44;5068417;28;20045;-57
2024/02/05 05:17:25;;;;;;;25.98;6.00;;;;;;;8.67;100.00;101738.00;5068622;28;20055;-57
2024/02/05 05:19:53;;;;;;;25.13;6.03;;;;;;;8.67;100.00;101745.00;5071492;28;20083;-56
2024/02/05 05:22:21;;;;;;;27.80;6.25;;;;;;;8.63;100.00;101739.91;5072211;28;20041;-56
2024/02/05 05:24:50;;;;;;;24.08;5.85;;;;;;;8.65;100.00;101744.25;5071594;28;20040;-57
2024/02/05 05:27:18;;;;;;;25.90;5.85;;;;;;;8.61;100.00;101735.63;5068787;28;20460;-57
2024/02/05 05:29:46;;;;;;;23.38;5.57;;;;;;;8.63;100.00;101753.00;5070818;28;20040;-57
2024/02/05 05:32:16;;;;;;;29.02;6.22;;;;;;;8.62;100.00;101746.06;5072272;28;20078;-57
2024/02/05 05:34:44;;;;;;;26.13;5.95;;;;;;;8.64;100.00;101751.22;5069307;28;20074;-57
2024/02/05 05:37:12;;;;;;;25.20;5.22;;;;;;;8.63;100.00;101750.41;5069002;28;20086;-57
2024/02/05 05:39:40;;;;;;;22.17;5.30;;;;;;;8.64;100.00;101759.09;5069074;28;20139;-57
2024/02/05 05:42:11;;;;;;;24.90;5.80;;;;;;;8.65;100.00;101749.47;5069200;28;20045;-57
2024/02/05 05:44:39;;;;;;;25.45;6.13;;;;;;;8.63;100.00;101754.78;5071029;28;20128;-57
2024/02/05 05:47:07;;;;;;;30.38;6.15;;;;;;;8.61;100.00;101746.13;5075442;28;20377;-56
2024/02/05 05:49:37;;;;;;;22.73;5.70;;;;;;;8.60;100.00;101752.28;5075456;28;20033;-56
2024/02/05 05:52:05;;;;;;;27.13;5.53;;;;;;;8.57;100.00;101755.88;5075452;28;20044;-55
2024/02/05 05:54:34;;;;;;;26.13;6.55;;;;;;;8.57;100.00;101745.41;5074333;28;20110;-55
2024/02/05 05:57:02;;;;;;;30.45;5.85;;;;;;;8.57;100.00;101752.41;5072706;28;20095;-55
2024/02/05 05:59:33;;;;;;;27.17;6.18;;;;;;;8.57;100.00;101740.16;5071609;28;20070;-55
2024/02/05 06:02:01;;;;;;;23.13;6.03;;;;;;;8.57;100.00;101741.94;5075504;28;20060;-56
2024/02/05 06:04:29;;;;;;;26.58;5.75;;;;;;;8.60;100.00;101741.78;5075281;28;20098;-55
2024/02/05 06:06:59;;;;;;;28.55;6.60;;;;;;;8.59;100.00;101746.19;5074088;28;20521;-56
2024/02/05 06:09:27;;;;;;;25.02;6.90;;;;;;;8.58;100.00;101744.47;5072009;28;20543;-56
2024/02/05 06:11:58;;;;;;;25.90;6.13;;;;;;;8.58;100.00;101762.00;5071915;28;20040;-56
2024/02/05 06:14:26;;;;;;;28.92;6.35;;;;;;;8.59;100.00;101761.09;5071439;28;20045;-56
2024/02/05 06:16:54;;;;;;;23.27;5.18;;;;;;;8.56;100.00;101750.72;5075211;28;20045;-56
2024/02/05 06:19:24;;;;;;;20.65;5.40;;;;;;;8.51;100.00;101756.16;5075445;28;20369;-56
2024/02/05 06:21:52;;;;;;;24.45;6.43;;;;;;;8.50;100.00;101754.44;5073540;28;20549;-56
2024/02/05 06:24:22;;;;;;;26.17;5.22;;;;;;;8.54;100.00;101742.06;5071793;28;20052;-56
2024/02/05 06:26:50;;;;;;;24.48;6.45;;;;;;;8.52;100.00;101744.75;5071854;28;20041;-56
2024/02/05 06:29:18;;;;;;;24.58;6.93;;;;;;;8.51;100.00;101748.28;5075108;28;20044;-56
2024/02/05 06:31:47;;;;;;;21.83;5.30;;;;;;;8.51;100.00;101743.06;5075480;28;20039;-56
2024/02/05 06:34:15;;;;;;;26.40;5.60;;;;;;;8.51;100.00;101740.44;5073875;28;20053;-56
2024/02/05 06:36:44;;;;;;;23.08;5.82;;;;;;;8.53;100.00;101732.50;5075156;28;20131;-55
2024/02/05 06:39:13;;;;;;;19.52;5.22;;;;;;;8.52;100.00;101747.38;5073767;28;20044;-56
2024/02/05 06:41:42;;;;;;;24.15;6.18;;;;;;;8.53;100.00;101738.56;5074694;28;20463;-56
2024/02/05 06:44:10;;;;;;;27.63;6.50;;;;;;;8.49;100.00;101738.78;5071249;28;20048;-56
2024/02/05 06:46:38;;;;;;;26.60;5.57;;;;;;;8.46;100.00;101737.13;5070946;28;20052;-56
2024/02/05 06:49:07;;;;;;;22.73;5.90;;;;;;;8.45;100.00;101738.03;5073912;28;20379;-56
2024/02/05 06:51:35;;;;;;;25.38;5.88;;;;;;;8.49;100.00;101744.03;5072417;28;20500;-56
2024/02/05 06:54:06;;;;;;;25.40;6.03;;;;;;;8.50;100.00;101741.34;5070788;28;20056;-56
2024/02/05 06:56:34;;;;;;;30.98;7.03;;;;;;;8.47;100.00;101741.47;5070017;28;20110;-56
2024/02/05 06:59:03;;;;;;;23.60;5.65;;;;;;;8.46;100.00;101745.00;5070837;28;20513;-56
2024/02/05 07:01:31;;;;;;;20.30;5.88;;;;;;;8.46;100.00;101758.94;5070275;28;20039;-56
2024/02/05 07:04:00;;;;;;;16.00;5.22;;;;;;;8.45;100.00;101745.91;5071300;28;20055;-55
2024/02/05 07:06:28;;;;;;;27.17;6.35;;;;;;;8.46;100.00;101755.50;5070637;28;20045;-56
2024/02/05 07:08:56;;;;;;;24.55;6.28;;;;;;;8.41;100.00;101745.19;5071382;28;20067;-56
2024/02/05 07:11:24;;;;;;;29.30;6.63;;;;;;;8.45;100.00;101746.78;5071205;28;20406;-56
2024/02/05 07:13:52;;;;;;;23.23;4.95;;;;;;;8.45;100.00;101761.66;5072961;28;20072;-56
2024/02/05 07:16:22;;;;;;;23.20;5.28;;;;;;;8.45;100.00;101753.78;5072887;28;20117;-55
2024/02/05 07:18:50;;;;;;;23.05;5.40;;;;;;;8.43;100.00;101750.34;5074364;28;20105;-56
2024/02/05 07:21:18;;;;;;;25.88;6.05;;;;;;;8.43;100.00;101753.81;5074106;28;20098;-56
2024/02/05 07:23:47;;;;;;;23.00;5.40;;;;;;;8.44;100.00;101746.81;5074394;28;20056;-56
2024/02/05 07:26:15;;;;;;;24.17;6.05;;;;;;;8.42;100.00;101751.25;5074085;28;20491;-56
2024/02/05 07:28:44;;;;;;;27.77;5.80;;;;;;;8.43;100.00;101759.06;5072092;28;20044;-56
2024/02/05 07:31:13;;;;;;;27.88;6.15;;;;;;;8.43;100.00;101761.69;5069641;28;20043;-56
2024/02/05 07:33:42;;;;;;;29.55;6.15;;;;;;;8.40;100.00;101755.72;5070737;28;20043;-56
2024/02/05 07:36:10;;;;;;;29.27;6.03;;;;;;;8.39;100.00;101751.41;5073679;28;20037;-56
2024/02/05 07:38:39;;;;;;;23.23;6.07;;;;;;;8.41;100.00;101760.91;5073463;28;20048;-55
2024/02/05 07:41:07;;;;;;;24.15;6.10;;;;;;;8.38;100.00;101749.69;5071695;28;20053;-56
2024/02/05 07:43:38;;;;;;;29.45;6.95;;;;;;;8.38;100.00;101770.66;5070546;28;20044;-56
2024/02/05 07:46:08;;;;;;;18.53;5.33;;;;;;;8.41;100.00;101773.13;5072603;28;20049;-55
2024/02/05 07:48:36;;;;;;;23.85;6.03;;;;;;;8.42;100.00;101767.00;5070700;28;20755;-56
2024/02/05 07:51:08;;;;;;;27.75;6.20;;;;;;;8.41;100.00;101766.16;5070262;28;20051;-55
2024/02/05 07:53:39;;;;;;;26.75;5.75;;;;;;;8.41;100.00;101773.13;5069939;28;20051;-56
2024/02/05 07:56:09;;;;;;;26.60;6.30;;;;;;;8.43;100.00;101780.03;5068996;28;20118;-56
2024/02/05 07:58:37;;;;;;;24.75;5.65;;;;;;;8.44;100.00;101768.63;5069770;28;20517;-56
2024/02/05 08:01:06;;;;;;;21.92;5.45;;;;;;;8.45;100.00;101769.50;5069243;28;20040;-56
2024/02/05 08:03:36;;;;;;;26.70;6.35;;;;;;;8.41;100.00;101768.78;5070815;28;20053;-56
2024/02/05 08:06:08;;;;;;;18.42;5.00;;;;;;;8.38;100.00;101776.75;5070159;28;20140;-56
2024/02/05 08:08:36;;;;;;;22.73;5.60;;;;;;;8.41;100.00;101768.78;5070091;28;20673;-56
2024/02/05 08:11:04;;;;;;;21.52;6.18;;;;;;;8.43;100.00;101769.53;5069450;28;20812;-56
2024/02/05 08:13:33;;;;;;;22.38;5.97;;;;;;;8.44;100.00;101775.66;5073057;28;20483;-55
2024/02/05 08:16:02;;;;;;;24.23;6.18;;;;;;;8.42;100.00;101774.84;5072847;28;20090;-56
2024/02/05 08:18:30;;;;;;;22.75;5.90;;;;;;;8.43;100.00;101784.44;5071735;28;20127;-56
2024/02/05 08:20:58;;;;;;;23.90;7.38;;;;;;;8.46;100.00;101779.94;5069512;28;20051;-56
2024/02/05 08:23:28;;;;;;;26.42;6.03;;;;;;;8.46;100.00;101771.22;5069638;28;20588;-56
2024/02/05 08:25:56;;;;;;;26.08;6.15;;;;;;;8.47;100.00;101783.41;5069293;28;20047;-56
2024/02/05 08:28:26;;;;;;;20.60;5.95;;;;;;;8.48;100.00;101766.78;5069711;28;20380;-56
2024/02/05 08:30:56;;;;;;;23.27;6.13;;;;;;;8.47;100.00;101762.44;5068154;28;20583;-56
2024/02/05 08:33:24;;;;;;;22.65;6.22;;;;;;;8.48;100.00;101774.66;5069607;28;20040;-57
2024/02/05 08:35:53;;;;;;;21.85;6.82;;;;;;;8.48;100.00;101768.53;5069450;28;20045;-56
2024/02/05 08:38:23;;;;;;;28.08;7.03;;;;;;;8.46;100.00;101776.47;5070037;28;20068;-57
2024/02/05 08:40:53;;;;;;;24.08;6.57;;;;;;;8.48;100.00;101755.41;5068852;28;20135;-56
2024/02/05 08:43:21;;;;;;;30.52;7.30;;;;;;;8.47;100.00;101765.06;5071772;28;20500;-56
2024/02/05 08:45:49;;;;;;;23.48;5.80;;;;;;;8.46;100.00;101763.34;5068194;28;20048;-56
2024/02/05 08:48:18;;;;;;;23.95;6.28;;;;;;;8.43;100.00;101771.31;5071808;28;20076;-56
2024/02/05 08:50:47;;;;;;;25.88;6.80;;;;;;;8.45;100.00;101777.38;5071532;28;20545;-57
2024/02/05 08:53:15;;;;;;;22.67;6.82;;;;;;;8.45;100.00;101764.25;5072730;28;20049;-56
2024/02/05 08:55:44;;;;;;;24.27;7.55;;;;;;;8.45;100.00;101774.75;5071368;28;20052;-56
2024/02/05 08:58:14;;;;;;;28.95;7.47;;;;;;;8.45;100.00;101765.13;5069528;28;20555;-56
2024/02/05 09:00:42;;;;;;;24.95;7.57;;;;;;;8.50;100.00;101771.97;5068119;28;20557;-56
2024/02/05 09:03:10;;;;;;;23.00;8.18;;;;;;;8.52;100.00;101773.59;5071693;28;20126;-57
2024/02/05 09:05:39;;;;;;;27.35;7.55;;;;;;;8.53;100.00;101777.91;5069412;28;20044;-56
2024/02/05 09:08:13;;;;;;;25.08;8.65;;;;;;;8.52;100.00;101772.72;5069501;28;20044;-56
2024/02/05 09:10:42;;;;;;;24.60;8.65;;;;;;;8.56;100.00;101782.16;5069237;28;20391;-56
2024/02/05 09:13:10;;;;;;;24.38;9.95;;;;;;;8.57;100.00;101784.72;5068535;28;20064;-56
2024/02/05 09:15:42;;;;;;;27.33;10.02;;;;;;;8.57;100.00;101783.88;5067408;28;20811;-56
2024/02/05 09:18:10;;;;;;;23.25;9.10;;;;;;;8.56;100.00;101787.41;5069164;28;20119;-56
2024/02/05 09:20:38;;;;;;;29.63;10.25;;;;;;;8.56;100.00;101784.78;5071053;28;20131;-56
2024/02/05 09:23:07;;;;;;;25.15;9.32;;;;;;;8.62;100.00;101780.16;5073238;28;20519;-46
2024/02/05 09:25:35;;;;;;;24.63;9.63;;;;;;;8.57;100.00;101795.22;5072790;28;20040;-47
2024/02/05 09:28:04;;;;;;;26.08;9.48;;;;;;;8.58;100.00;101786.44;5075468;28;20044;-46
2024/02/05 09:30:32;;;;;;;31.13;9.82;;;;;;;8.60;100.00;101786.38;5075683;28;20052;-51
2024/02/05 09:33:02;;;;;;;29.83;9.32;;;;;;;8.65;100.00;101780.94;5074375;28;20053;-47
2024/02/05 09:35:30;;;;;;;30.30;8.95;;;;;;;8.70;100.00;101794.69;5076187;28;20048;-51
2024/02/05 09:37:58;;;;;;;20.48;8.40;;;;;;;8.70;100.00;101797.31;5076012;28;20394;-50
2024/02/05 09:40:28;;;;;;;22.35;8.57;;;;;;;8.65;100.00;101794.06;5075934;28;20063;-45
2024/02/05 09:42:57;;;;;;;24.08;8.57;;;;;;;8.69;100.00;101791.22;5075902;28;20099;-46
2024/02/05 09:45:27;;;;;;;25.95;9.13;;;;;;;8.72;100.00;101788.47;5075786;28;20033;-45
2024/02/05 09:47:56;;;;;;;23.17;7.85;;;;;;;8.72;100.00;101798.13;5076233;28;20132;-50
2024/02/05 09:50:28;;;;;;;20.88;8.07;;;;;;;8.72;100.00;101800.75;5075904;28;20040;-47
2024/02/05 09:52:56;;;;;;;23.85;7.82;;;;;;;8.75;100.00;101792.75;5072877;28;20120;-48
2024/02/05 09:55:27;;;;;;;19.50;7.00;;;;;;;8.83;100.00;101789.81;5070819;28;20475;-47
2024/02/05 09:57:56;;;;;;;22.00;7.38;;;;;;;8.79;100.00;101803.06;5076109;28;20487;-47
2024/02/05 10:00:27;;;;;;;24.17;6.82;;;;;;;8.84;100.00;101791.50;5073862;28;20094;-47
2024/02/05 10:02:56;;;;;;;24.45;7.15;;;;;;;8.83;100.00;101789.81;5071980;28;20048;-46
2024/02/05 10:05:27;;;;;;;26.55;7.65;;;;;;;8.83;100.00;101780.16;5074714;28;20040;-46
2024/02/05 10:07:56;;;;;;;24.73;6.32;;;;;;;8.84;100.00;101789.72;5072417;28;20055;-46
2024/02/05 10:10:28;;;;;;;26.05;6.47;;;;;;;8.86;100.00;101774.78;5072110;28;20369;-47
2024/02/05 10:12:57;;;;;;;25.50;6.55;;;;;;;8.95;100.00;101782.25;5072243;28;20052;-47
2024/02/05 10:15:25;;;;;;;23.55;6.55;;;;;;;8.91;100.00;101780.66;5069686;28;20068;-49
2024/02/05 10:17:54;;;;;;;25.20;6.85;;;;;;;8.92;100.00;101787.63;5074328;28;20071;-46
2024/02/05 10:20:33;;;;;;;20.38;5.68;;;;;;;8.94;100.00;101785.81;5071648;28;20445;-47
2024/02/05 10:23:01;;;;;;;20.55;5.38;;;;;;;8.94;100.00;101782.31;5071918;28;20071;-46
2024/02/05 10:25:29;;;;;;;26.77;5.88;;;;;;;8.95;100.00;101777.00;5074927;28;20488;-46
2024/02/05 10:28:02;;;;;;;19.70;5.35;;;;;;;8.98;100.00;101789.13;5074946;28;20436;-47
2024/02/05 10:30:31;;;;;;;20.02;5.40;;;;;;;9.02;100.00;101784.63;5074822;28;20040;-46
2024/02/05 10:33:00;;;;;;;19.35;5.22;;;;;;;9.09;100.00;101788.66;5073983;28;20044;-48
2024/02/05 10:35:30;;;;;;;25.83;6.03;;;;;;;9.05;100.00;101790.59;5074257;28;20131;-47
2024/02/05 10:38:07;;;;;;;20.23;5.82;;;;;;;9.04;100.00;101778.38;5071664;28;20051;-46
2024/02/05 10:40:36;;;;;;;20.75;5.32;;;;;;;9.04;100.00;101785.38;5073889;28;20048;-46
2024/02/05 10:43:08;;;;;;;21.48;5.25;;;;;;;9.07;100.00;101774.78;5075075;28;20049;-46
2024/02/05 10:45:39;;;;;;;29.20;5.47;;;;;;;9.15;100.00;101780.53;5074949;28;20037;-56
2024/02/05 10:48:07;;;;;;;16.60;4.85;;;;;;;9.18;100.00;101775.16;5073845;28;20117;-56
2024/02/05 10:50:37;;;;;;;24.40;6.72;;;;;;;9.22;100.00;101763.59;5071899;28;20471;-56
2024/02/05 10:53:06;;;;;;;24.85;5.65;;;;;;;9.20;100.00;101762.78;5073529;28;20055;-56
2024/02/05 10:55:35;;;;;;;30.65;6.07;;;;;;;9.25;100.00;101767.84;5072002;28;20055;-57
2024/02/05 10:58:05;;;;;;;17.95;5.07;;;;;;;9.24;100.00;101753.88;5070186;28;20427;-57
2024/02/05 11:00:33;;;;;;;20.27;5.10;;;;;;;9.26;100.00;101746.78;5071521;28;20063;-56
2024/02/05 11:03:05;;;;;;;21.98;4.93;;;;;;;9.28;100.00;101758.06;5074115;28;20110;-56
2024/02/05 11:05:35;;;;;;;19.42;5.07;;;;;;;9.34;100.00;101742.94;5074703;28;20481;-57
2024/02/05 11:08:09;;;;;;;19.13;5.53;;;;;;;9.37;100.00;101738.41;5074717;28;20507;-56
2024/02/05 11:10:43;;;;;;;19.88;5.05;;;;;;;9.39;100.00;101733.09;5070920;28;20041;-57
2024/02/05 11:13:16;;;;;;;21.23;5.20;;;;;;;9.40;100.00;101732.19;5071223;28;20403;-57
2024/02/05 11:15:47;;;;;;;28.23;5.70;;;;;;;9.39;100.00;101731.31;5071562;28;20058;-57
2024/02/05 11:18:19;;;;;;;18.90;5.25;;;;;;;9.38;100.00;101719.13;5073581;28;20526;-57
2024/02/05 11:20:50;;;;;;;21.23;5.18;;;;;;;9.41;100.00;101726.00;5073796;28;20045;-56
2024/02/05 11:23:22;;;;;;;21.02;4.88;;;;;;;9.41;100.00;101720.75;5072405;28;20045;-57
2024/02/05 11:25:50;;;;;;;20.40;6.05;;;;;;;9.46;100.00;101705.63;5070571;28;20101;-56